KORE

Details ICAO KORE
Name Orange Muni
Region United States
Timezone America/New_York (UTC-4.0)
Plans Departing 3
Arriving 10
Stats Elevation 555 ft / 169 m (AMSL)
Location 42.570039° -72.288461°
Runways 2
Magnetic Variation 14.156° W
Sunrise 2018-05-23 09:21:22 UTC / 2018-05-23 05:21:22 Local
Sunset 2018-05-24 00:13:20 UTC / 2018-05-23 20:13:20 Local
Advertisement - Login to hide

Runways

ID Width Length Bearing (true) Bearing (mag) Surface Threshold Offset Overrun Length
01 75 ft / 23 m 5,007 ft / 1,526 m 0.58° 14.74° Asphalt 98 ft / 30 m 0 ft / 0 m
14 75 ft / 23 m 4,797 ft / 1,462 m 127.20° 141.36° Asphalt 1,476 ft / 450 m 0 ft / 0 m
19 75 ft / 23 m 5,007 ft / 1,526 m 180.58° 194.74° Asphalt 850 ft / 259 m 0 ft / 0 m
32 75 ft / 23 m 4,797 ft / 1,462 m 307.21° 321.37° Asphalt 1,660 ft / 506 m 0 ft / 0 m

Map

Weather


0- 5 10 15 20 25 30 35+ Temperature / ° C

Clouds and Precipitation
Forecast for 2018-05-23 18:00 UTC. Updated 24 minutes ago

Ground ~20,000 ft ~40,000 ft Winds

METAR

KORE 231652Z AUTO 01013G18KT 10SM CLR 26/09 A2989 RMK AO2 SLP122 T02610094

TAF

Not found

Frequencies

Recorded 135.67 MHz ASOS
Unicom 122.80 MHz CTAF/Unicom
Warning: Do not use this data for real-world aviation or navigation. No guarantee of current accuracy is given.